• Join FlightAware (Why Join?)
  • Login
  • US Flag 
12:58AM EDT


 

Airport Tracker/Info


-or-


 

Live Flight TrackerFlight Track Log ✈ WIG1063 ✈ 24-May-2012 ✈ KBTV - KMHT

Flight Track Log - Related Links

Times and Time Zones

All times are in EDT time to prevent confusion due to time zone crossing. See the WIG1063 flight status page for this flight to view local times or setup timezone preferences in your user account.

Time Position Orientation Groundspeed Altitude Reporting Facility
EDT Latitude Longitude Course Direction KTS MPH feet Rate Location/Type
07:47PM 44.4056 -73.0592 140° Southeast 145 167 4,700  Level Boston Center
07:51PM 44.2542 -72.8836 141° Southeast 200 230 7,000 540 Climbing Boston Center
07:52PM 44.2106 -72.8339 140° Southeast 208 239 7,600 840 Climbing Boston Center
07:53PM 44.1711 -72.7875 144° Southeast 195 224 8,700 720 Climbing Boston Center
07:54PM 44.1275 -72.7439 140° Southeast 195 224 9,100 120 Climbing Boston Center
07:55PM 44.0819 -72.6914 139° Southeast 206 237 9,000 -60 Descending Boston Center
07:56PM 44.0383 -72.6394 139° Southeast 206 237 9,000  Level Boston Center
07:57PM 43.9925 -72.5844 137° Southeast 206 237 9,100  Climbing Boston Center
07:58PM 43.9528 -72.5322 140° Southeast 212 244 9,100  Level Boston Center
07:59PM 43.9114 -72.4833 141° Southeast 212 244 9,100 -60 Level Boston Center
08:00PM 43.8675 -72.4344 142° Southeast 207 238 9,000  Descending Boston Center
08:01PM 43.8194 -72.3825 141° Southeast 207 238 9,100  Climbing Boston Center
08:02PM 43.7736 -72.3308 142° Southeast 212 244 9,100 -60 Level Boston Center
08:03PM 43.7258 -72.2792 138° Southeast 212 244 9,000 -60 Descending Boston Center
08:04PM 43.6839 -72.2278 141° Southeast 212 244 9,000  Level Boston Center
08:05PM 43.6358 -72.1733 146° Southeast 212 244 9,100  Climbing Boston Center
08:06PM 43.5878 -72.1278 141° Southeast 212 244 9,100  Level Boston Center
08:07PM 43.5397 -72.0733 140° Southeast 212 244 9,100  Level Boston Center
08:08PM 43.4936 -72.0194 142° Southeast 217 250 9,100 -300 Level Boston Center
08:09PM 43.4456 -71.9683 138° Southeast 222 255 8,600 -720 Descending Boston Center
08:10PM 43.3911 -71.9000 137° Southeast 230 265 7,700 -960 Descending Boston Center
08:11PM 43.3428 -71.8378 135° Southeast 237 273 6,700 -900 Descending Boston Center
08:12PM 43.2967 -71.7753 136° Southeast 231 266 6,000 -840 Descending Boston Center
08:13PM 43.2525 -71.7161 141° Southeast 226 260 5,100 -540 Descending Boston Center
08:14PM 43.2064 -71.6653 138° Southeast 221 254 5,000 -720 Descending Boston Center
08:15PM 43.1603 -71.6089 141° Southeast 213 245 3,700 -1,020 Descending Boston Center
08:16PM 43.1119 -71.5556 147° Southeast 218 251 3,000 -720 Descending Boston Center
08:17PM 43.0614 -71.5108 157° South 213 245 2,300 -360 Descending Boston Center
08:18PM 43.0236 -71.4886 157° South 190 219 2,300 -480 Level Boston Center
08:19PM 42.9903 -71.4694 157° South 132 152 1,400 -900 Descending Boston Center
08:28PM 42.5459 -71.2107 157° South  Level Estimated